sensor_id;sensor_type;location;lat;lon;timestamp;pressure;altitude;pressure_sealevel;temperature;humidity
78613;BME280;67933;51.060;3.638;2023-07-31T00:01:04;101314.31;;;16.21;91.51
78613;BME280;67933;51.060;3.638;2023-07-31T00:03:30;101327.78;;;16.19;91.73
78613;BME280;67933;51.060;3.638;2023-07-31T00:05:55;101306.06;;;16.24;91.21
78613;BME280;67933;51.060;3.638;2023-07-31T00:08:20;101306.66;;;16.27;91.02
78613;BME280;67933;51.060;3.638;2023-07-31T00:10:46;101321.25;;;16.23;91.74
78613;BME280;67933;51.060;3.638;2023-07-31T00:13:11;101308.00;;;16.22;91.46
78613;BME280;67933;51.060;3.638;2023-07-31T00:15:37;101301.56;;;16.24;91.92
78613;BME280;67933;51.060;3.638;2023-07-31T00:18:02;101316.78;;;16.24;90.97
78613;BME280;67933;51.060;3.638;2023-07-31T00:20:28;101303.28;;;16.25;91.32
78613;BME280;67933;51.060;3.638;2023-07-31T00:22:53;101298.88;;;16.24;90.98
78613;BME280;67933;51.060;3.638;2023-07-31T00:25:18;101297.28;;;16.22;90.46
78613;BME280;67933;51.060;3.638;2023-07-31T00:27:44;101298.88;;;16.24;90.99
78613;BME280;67933;51.060;3.638;2023-07-31T00:30:11;101290.97;;;16.23;90.93
78613;BME280;67933;51.060;3.638;2023-07-31T00:32:37;101308.84;;;16.22;90.57
78613;BME280;67933;51.060;3.638;2023-07-31T00:35:02;101299.84;;;16.23;90.53
78613;BME280;67933;51.060;3.638;2023-07-31T00:37:28;101305.19;;;16.23;90.39
78613;BME280;67933;51.060;3.638;2023-07-31T00:39:53;101300.59;;;16.25;90.68
78613;BME280;67933;51.060;3.638;2023-07-31T00:42:19;101292.44;;;16.27;90.89
78613;BME280;67933;51.060;3.638;2023-07-31T00:44:45;101293.28;;;16.27;89.89
78613;BME280;67933;51.060;3.638;2023-07-31T00:47:10;101283.31;;;16.29;90.28
78613;BME280;67933;51.060;3.638;2023-07-31T00:49:36;101281.63;;;16.28;89.54
78613;BME280;67933;51.060;3.638;2023-07-31T00:52:01;101291.56;;;16.26;89.94
78613;BME280;67933;51.060;3.638;2023-07-31T00:54:27;101299.00;;;16.23;91.08
78613;BME280;67933;51.060;3.638;2023-07-31T00:56:54;101299.59;;;16.26;89.51
78613;BME280;67933;51.060;3.638;2023-07-31T00:59:19;101290.38;;;16.30;90.09
78613;BME280;67933;51.060;3.638;2023-07-31T01:01:45;101288.88;;;16.26;90.42
78613;BME280;67933;51.060;3.638;2023-07-31T01:04:11;101286.97;;;16.28;90.17
78613;BME280;67933;51.060;3.638;2023-07-31T01:12:21;101286.75;;;16.31;89.64
78613;BME280;67933;51.060;3.638;2023-07-31T01:15:12;101278.81;;;16.30;89.91
78613;BME280;67933;51.060;3.638;2023-07-31T01:17:41;101276.03;;;16.31;89.78
78613;BME280;67933;51.060;3.638;2023-07-31T01:20:20;101272.16;;;16.35;89.70
78613;BME280;67933;51.060;3.638;2023-07-31T01:28:28;101265.94;;;16.35;90.07
78613;BME280;67933;51.060;3.638;2023-07-31T01:30:58;101261.22;;;16.38;89.89
78613;BME280;67933;51.060;3.638;2023-07-31T01:33:25;101259.50;;;16.37;89.81
78613;BME280;67933;51.060;3.638;2023-07-31T01:35:51;101254.16;;;16.37;90.26
78613;BME280;67933;51.060;3.638;2023-07-31T01:38:20;101251.38;;;16.39;89.74
78613;BME280;67933;51.060;3.638;2023-07-31T01:40:50;101251.25;;;16.40;89.75
78613;BME280;67933;51.060;3.638;2023-07-31T01:43:16;101238.84;;;16.39;90.19
78613;BME280;67933;51.060;3.638;2023-07-31T01:45:41;101253.94;;;16.40;89.73
78613;BME280;67933;51.060;3.638;2023-07-31T01:48:07;101247.47;;;16.43;90.09
78613;BME280;67933;51.060;3.638;2023-07-31T01:50:32;101238.47;;;16.44;90.26
78613;BME280;67933;51.060;3.638;2023-07-31T01:52:57;101237.44;;;16.34;91.49
78613;BME280;67933;51.060;3.638;2023-07-31T01:55:23;101235.13;;;16.29;91.89
78613;BME280;67933;51.060;3.638;2023-07-31T01:57:48;101239.88;;;16.26;91.22
78613;BME280;67933;51.060;3.638;2023-07-31T02:00:14;101219.16;;;16.28;91.63
78613;BME280;67933;51.060;3.638;2023-07-31T02:02:39;101209.31;;;16.28;91.71
78613;BME280;67933;51.060;3.638;2023-07-31T02:05:05;101200.31;;;16.29;90.76
78613;BME280;67933;51.060;3.638;2023-07-31T02:07:31;101204.34;;;16.35;90.71
78613;BME280;67933;51.060;3.638;2023-07-31T02:09:56;101190.38;;;16.42;90.47
78613;BME280;67933;51.060;3.638;2023-07-31T02:12:22;101203.44;;;16.47;89.64
78613;BME280;67933;51.060;3.638;2023-07-31T02:14:47;101188.94;;;16.49;89.93
78613;BME280;67933;51.060;3.638;2023-07-31T02:17:12;101183.34;;;16.52;90.16
78613;BME280;67933;51.060;3.638;2023-07-31T02:19:38;101180.69;;;16.52;89.72
78613;BME280;67933;51.060;3.638;2023-07-31T02:22:03;101179.47;;;16.57;89.72
78613;BME280;67933;51.060;3.638;2023-07-31T02:24:29;101183.97;;;16.56;90.03
78613;BME280;67933;51.060;3.638;2023-07-31T02:26:54;101177.13;;;16.52;90.53
78613;BME280;67933;51.060;3.638;2023-07-31T02:29:20;101169.75;;;16.55;90.57
78613;BME280;67933;51.060;3.638;2023-07-31T02:31:45;101173.00;;;16.59;90.54
78613;BME280;67933;51.060;3.638;2023-07-31T02:34:10;101164.66;;;16.64;90.33
78613;BME280;67933;51.060;3.638;2023-07-31T02:36:36;101159.31;;;16.64;90.42
78613;BME280;67933;51.060;3.638;2023-07-31T02:39:01;101164.66;;;16.64;90.16
78613;BME280;67933;51.060;3.638;2023-07-31T02:41:26;101162.97;;;16.63;90.24
78613;BME280;67933;51.060;3.638;2023-07-31T02:43:52;101153.94;;;16.64;90.49
78613;BME280;67933;51.060;3.638;2023-07-31T02:46:19;101155.63;;;16.65;90.77
78613;BME280;67933;51.060;3.638;2023-07-31T02:48:44;101153.69;;;16.67;90.09
78613;BME280;67933;51.060;3.638;2023-07-31T02:51:10;101146.50;;;16.67;91.49
78613;BME280;67933;51.060;3.638;2023-07-31T02:53:35;101155.53;;;16.66;90.83
78613;BME280;67933;51.060;3.638;2023-07-31T02:56:01;101145.66;;;16.67;91.36
78613;BME280;67933;51.060;3.638;2023-07-31T02:58:26;101147.59;;;16.65;92.12
78613;BME280;67933;51.060;3.638;2023-07-31T03:00:51;101132.53;;;16.64;92.16
78613;BME280;67933;51.060;3.638;2023-07-31T03:03:17;101137.13;;;16.62;92.10
78613;BME280;67933;51.060;3.638;2023-07-31T03:05:42;101130.06;;;16.61;92.71
78613;BME280;67933;51.060;3.638;2023-07-31T03:08:08;101119.06;;;16.52;94.20
78613;BME280;67933;51.060;3.638;2023-07-31T03:10:33;101121.13;;;16.38;96.47
78613;BME280;67933;51.060;3.638;2023-07-31T03:12:58;101119.41;;;16.26;97.35
78613;BME280;67933;51.060;3.638;2023-07-31T03:15:24;101120.91;;;16.06;100.00
78613;BME280;67933;51.060;3.638;2023-07-31T03:17:49;101127.19;;;15.94;100.00
78613;BME280;67933;51.060;3.638;2023-07-31T03:20:15;101119.13;;;15.83;100.00
78613;BME280;67933;51.060;3.638;2023-07-31T03:22:40;101120.19;;;15.80;100.00
78613;BME280;67933;51.060;3.638;2023-07-31T03:25:06;101120.44;;;15.77;100.00
78613;BME280;67933;51.060;3.638;2023-07-31T03:27:31;101109.09;;;15.73;100.00
78613;BME280;67933;51.060;3.638;2023-07-31T03:29:57;101111.78;;;15.73;100.00
78613;BME280;67933;51.060;3.638;2023-07-31T03:32:22;101107.28;;;15.74;100.00
78613;BME280;67933;51.060;3.638;2023-07-31T03:34:48;101104.84;;;15.71;100.00
78613;BME280;67933;51.060;3.638;2023-07-31T03:37:14;101103.75;;;15.73;100.00
78613;BME280;67933;51.060;3.638;2023-07-31T03:39:39;101095.84;;;15.72;100.00
78613;BME280;67933;51.060;3.638;2023-07-31T03:42:05;101088.91;;;15.69;100.00
78613;BME280;67933;51.060;3.638;2023-07-31T03:44:30;101083.47;;;15.71;100.00
78613;BME280;67933;51.060;3.638;2023-07-31T03:46:55;101084.53;;;15.68;100.00
78613;BME280;67933;51.060;3.638;2023-07-31T03:49:21;101082.81;;;15.67;100.00
78613;BME280;67933;51.060;3.638;2023-07-31T03:51:46;101077.47;;;15.67;100.00
78613;BME280;67933;51.060;3.638;2023-07-31T03:54:12;101079.19;;;15.68;100.00
78613;BME280;67933;51.060;3.638;2023-07-31T03:56:38;101088.16;;;15.67;100.00
78613;BME280;67933;51.060;3.638;2023-07-31T03:59:03;101080.16;;;15.67;100.00
78613;BME280;67933;51.060;3.638;2023-07-31T04:01:29;101073.84;;;15.68;100.00
78613;BME280;67933;51.060;3.638;2023-07-31T04:03:54;101073.63;;;15.71;100.00
78613;BME280;67933;51.060;3.638;2023-07-31T04:06:20;101070.09;;;15.71;100.00
78613;BME280;67933;51.060;3.638;2023-07-31T04:08:45;101060.94;;;15.73;100.00
78613;BME280;67933;51.060;3.638;2023-07-31T04:11:11;101056.47;;;15.74;100.00
78613;BME280;67933;51.060;3.638;2023-07-31T04:13:37;101067.16;;;15.74;100.00
78613;BME280;67933;51.060;3.638;2023-07-31T04:16:03;101059.50;;;15.81;100.00
78613;BME280;67933;51.060;3.638;2023-07-31T04:18:28;101066.09;;;15.76;100.00
78613;BME280;67933;51.060;3.638;2023-07-31T04:20:56;101064.16;;;15.78;100.00
78613;BME280;67933;51.060;3.638;2023-07-31T04:23:21;101055.38;;;15.76;100.00
78613;BME280;67933;51.060;3.638;2023-07-31T04:25:47;101064.88;;;15.81;100.00
78613;BME280;67933;51.060;3.638;2023-07-31T04:28:12;101064.66;;;15.84;100.00
78613;BME280;67933;51.060;3.638;2023-07-31T04:30:37;101062.94;;;15.83;100.00
78613;BME280;67933;51.060;3.638;2023-07-31T04:33:03;101050.19;;;15.86;100.00
78613;BME280;67933;51.060;3.638;2023-07-31T04:35:29;101048.47;;;15.85;100.00
78613;BME280;67933;51.060;3.638;2023-07-31T04:37:54;101061.75;;;15.87;100.00
78613;BME280;67933;51.060;3.638;2023-07-31T04:40:20;101059.28;;;15.84;100.00
78613;BME280;67933;51.060;3.638;2023-07-31T04:42:46;101055.97;;;15.80;100.00
78613;BME280;67933;51.060;3.638;2023-07-31T04:45:11;101060.72;;;15.76;100.00
78613;BME280;67933;51.060;3.638;2023-07-31T04:47:37;101052.72;;;15.76;100.00
78613;BME280;67933;51.060;3.638;2023-07-31T04:50:02;101049.28;;;15.74;100.00
78613;BME280;67933;51.060;3.638;2023-07-31T04:52:28;101043.72;;;15.77;100.00
78613;BME280;67933;51.060;3.638;2023-07-31T04:54:53;101045.53;;;15.77;100.00
78613;BME280;67933;51.060;3.638;2023-07-31T04:57:18;101044.78;;;15.75;100.00
78613;BME280;67933;51.060;3.638;2023-07-31T04:59:44;101035.06;;;15.74;100.00
78613;BME280;67933;51.060;3.638;2023-07-31T05:02:11;101019.63;;;15.77;100.00
78613;BME280;67933;51.060;3.638;2023-07-31T05:04:37;101021.47;;;15.77;100.00
78613;BME280;67933;51.060;3.638;2023-07-31T05:07:02;101021.09;;;15.82;100.00
78613;BME280;67933;51.060;3.638;2023-07-31T05:09:28;101033.50;;;15.83;100.00
78613;BME280;67933;51.060;3.638;2023-07-31T05:11:53;101018.31;;;15.83;100.00
78613;BME280;67933;51.060;3.638;2023-07-31T05:14:18;101022.47;;;15.87;100.00
78613;BME280;67933;51.060;3.638;2023-07-31T05:16:45;101013.97;;;15.93;100.00
78613;BME280;67933;51.060;3.638;2023-07-31T05:19:10;101006.66;;;15.95;100.00
78613;BME280;67933;51.060;3.638;2023-07-31T05:21:36;101013.72;;;15.96;100.00
78613;BME280;67933;51.060;3.638;2023-07-31T05:24:01;101009.22;;;15.97;100.00
78613;BME280;67933;51.060;3.638;2023-07-31T05:26:26;101016.03;;;16.01;100.00
78613;BME280;67933;51.060;3.638;2023-07-31T05:28:52;101008.03;;;16.01;100.00
78613;BME280;67933;51.060;3.638;2023-07-31T05:31:17;101009.84;;;16.00;100.00
78613;BME280;67933;51.060;3.638;2023-07-31T05:33:43;101001.44;;;16.05;100.00
78613;BME280;67933;51.060;3.638;2023-07-31T05:36:08;101012.78;;;16.08;100.00
78613;BME280;67933;51.060;3.638;2023-07-31T05:38:34;101002.06;;;16.08;100.00
78613;BME280;67933;51.060;3.638;2023-07-31T05:40:59;100995.88;;;16.08;100.00
78613;BME280;67933;51.060;3.638;2023-07-31T05:43:25;101010.69;;;16.12;100.00
78613;BME280;67933;51.060;3.638;2023-07-31T05:45:51;101003.53;;;16.12;100.00
78613;BME280;67933;51.060;3.638;2023-07-31T05:48:16;101008.28;;;16.09;100.00
78613;BME280;67933;51.060;3.638;2023-07-31T05:50:43;101009.34;;;16.06;100.00
78613;BME280;67933;51.060;3.638;2023-07-31T05:53:08;100997.91;;;16.04;100.00
78613;BME280;67933;51.060;3.638;2023-07-31T05:55:35;101001.44;;;16.05;100.00
78613;BME280;67933;51.060;3.638;2023-07-31T05:58:01;101001.69;;;16.02;100.00
78613;BME280;67933;51.060;3.638;2023-07-31T06:00:26;100996.09;;;16.05;100.00
78613;BME280;67933;51.060;3.638;2023-07-31T06:02:53;100995.88;;;16.08;100.00
78613;BME280;67933;51.060;3.638;2023-07-31T06:05:18;100996.00;;;16.17;100.00
78613;BME280;67933;51.060;3.638;2023-07-31T06:07:44;100997.34;;;16.23;100.00
78613;BME280;67933;51.060;3.638;2023-07-31T06:10:09;100978.47;;;16.25;100.00
78613;BME280;67933;51.060;3.638;2023-07-31T06:12:35;100990.91;;;16.26;100.00
78613;BME280;67933;51.060;3.638;2023-07-31T06:15:02;100986.50;;;16.25;100.00
78613;BME280;67933;51.060;3.638;2023-07-31T06:17:28;100980.31;;;16.24;100.00
78613;BME280;67933;51.060;3.638;2023-07-31T06:19:54;100972.28;;;16.24;100.00
78613;BME280;67933;51.060;3.638;2023-07-31T06:22:19;100981.00;;;16.26;100.00
78613;BME280;67933;51.060;3.638;2023-07-31T06:24:46;100978.34;;;16.26;100.00
78613;BME280;67933;51.060;3.638;2023-07-31T06:27:12;100963.88;;;16.29;100.00
78613;BME280;67933;51.060;3.638;2023-07-31T06:29:37;100971.03;;;16.28;100.00
78613;BME280;67933;51.060;3.638;2023-07-31T06:32:03;100963.75;;;16.30;100.00
78613;BME280;67933;51.060;3.638;2023-07-31T06:34:28;100974.44;;;16.30;100.00
78613;BME280;67933;51.060;3.638;2023-07-31T06:36:55;100955.59;;;16.32;100.00
78613;BME280;67933;51.060;3.638;2023-07-31T06:39:20;100970.53;;;16.34;100.00
78613;BME280;67933;51.060;3.638;2023-07-31T06:41:46;100959.59;;;16.37;100.00
78613;BME280;67933;51.060;3.638;2023-07-31T06:44:11;100954.00;;;16.40;100.00
78613;BME280;67933;51.060;3.638;2023-07-31T06:46:36;100964.84;;;16.39;100.00
78613;BME280;67933;51.060;3.638;2023-07-31T06:49:02;100961.66;;;16.45;100.00
78613;BME280;67933;51.060;3.638;2023-07-31T06:51:27;100952.53;;;16.47;100.00
78613;BME280;67933;51.060;3.638;2023-07-31T06:53:53;100965.44;;;16.53;99.88
78613;BME280;67933;51.060;3.638;2023-07-31T06:56:18;100968.84;;;16.55;99.43
78613;BME280;67933;51.060;3.638;2023-07-31T06:58:43;100965.19;;;16.57;99.91
78613;BME280;67933;51.060;3.638;2023-07-31T07:01:09;100968.38;;;16.62;99.14
78613;BME280;67933;51.060;3.638;2023-07-31T07:03:34;100976.16;;;16.65;99.10
78613;BME280;67933;51.060;3.638;2023-07-31T07:06:00;100964.00;;;16.72;96.83
78613;BME280;67933;51.060;3.638;2023-07-31T07:08:25;100967.88;;;16.79;97.13
78613;BME280;67933;51.060;3.638;2023-07-31T07:10:51;100983.69;;;16.82;96.32
78613;BME280;67933;51.060;3.638;2023-07-31T07:13:16;100979.06;;;16.84;95.97
78613;BME280;67933;51.060;3.638;2023-07-31T07:15:47;100990.25;;;16.89;96.09
78613;BME280;67933;51.060;3.638;2023-07-31T07:18:13;100971.41;;;17.11;94.04
78613;BME280;67933;51.060;3.638;2023-07-31T07:20:39;100971.47;;;17.32;93.37
78613;BME280;67933;51.060;3.638;2023-07-31T07:23:04;100979.31;;;17.45;93.33
78613;BME280;67933;51.060;3.638;2023-07-31T07:25:30;100973.50;;;17.40;93.15
78613;BME280;67933;51.060;3.638;2023-07-31T07:27:55;100977.19;;;17.27;95.05
78613;BME280;67933;51.060;3.638;2023-07-31T07:30:21;100974.16;;;17.00;97.07
78613;BME280;67933;51.060;3.638;2023-07-31T07:32:46;100975.50;;;16.95;98.16
78613;BME280;67933;51.060;3.638;2023-07-31T07:35:11;100976.44;;;17.05;98.84
78613;BME280;67933;51.060;3.638;2023-07-31T07:37:37;100978.25;;;17.04;97.54
78613;BME280;67933;51.060;3.638;2023-07-31T07:40:02;100983.63;;;17.04;97.32
78613;BME280;67933;51.060;3.638;2023-07-31T07:42:28;100965.81;;;17.14;98.98
78613;BME280;67933;51.060;3.638;2023-07-31T07:44:53;100975.53;;;17.26;99.32
78613;BME280;67933;51.060;3.638;2023-07-31T07:47:19;100973.22;;;17.22;98.21
78613;BME280;67933;51.060;3.638;2023-07-31T07:49:44;100969.78;;;17.20;98.66
78613;BME280;67933;51.060;3.638;2023-07-31T07:52:09;100975.88;;;17.22;97.89
78613;BME280;67933;51.060;3.638;2023-07-31T07:54:35;100965.91;;;17.45;96.55
78613;BME280;67933;51.060;3.638;2023-07-31T07:57:00;100969.00;;;17.61;94.98
78613;BME280;67933;51.060;3.638;2023-07-31T07:59:26;100946.69;;;17.60;94.95
78613;BME280;67933;51.060;3.638;2023-07-31T08:01:51;100951.56;;;17.66;95.14
78613;BME280;67933;51.060;3.638;2023-07-31T08:04:16;100942.44;;;17.58;93.72
78613;BME280;67933;51.060;3.638;2023-07-31T08:06:42;100954.00;;;17.69;94.13
78613;BME280;67933;51.060;3.638;2023-07-31T08:09:07;100938.53;;;17.83;93.76
78613;BME280;67933;51.060;3.638;2023-07-31T08:11:34;100943.19;;;17.81;93.75
78613;BME280;67933;51.060;3.638;2023-07-31T08:13:59;100949.56;;;17.89;92.57
78613;BME280;67933;51.060;3.638;2023-07-31T08:16:25;100938.22;;;18.06;92.00
78613;BME280;67933;51.060;3.638;2023-07-31T08:18:50;100956.03;;;18.07;92.09
78613;BME280;67933;51.060;3.638;2023-07-31T08:21:15;100943.88;;;18.03;91.89
78613;BME280;67933;51.060;3.638;2023-07-31T08:23:41;100946.88;;;17.89;91.63
78613;BME280;67933;51.060;3.638;2023-07-31T08:26:06;100933.88;;;17.85;93.13
78613;BME280;67933;51.060;3.638;2023-07-31T08:28:32;100928.31;;;17.77;91.82
78613;BME280;67933;51.060;3.638;2023-07-31T08:30:57;100939.56;;;17.91;91.42
78613;BME280;67933;51.060;3.638;2023-07-31T08:33:23;100924.19;;;18.24;89.77
78613;BME280;67933;51.060;3.638;2023-07-31T08:35:48;100934.00;;;18.44;90.30
78613;BME280;67933;51.060;3.638;2023-07-31T08:38:14;100937.66;;;18.73;88.87
78613;BME280;67933;51.060;3.638;2023-07-31T08:40:39;100925.38;;;19.00;87.91
78613;BME280;67933;51.060;3.638;2023-07-31T08:43:05;100928.88;;;18.91;88.60
78613;BME280;67933;51.060;3.638;2023-07-31T08:45:32;100937.50;;;18.65;87.89
78613;BME280;67933;51.060;3.638;2023-07-31T08:47:58;100928.41;;;18.57;89.01
78613;BME280;67933;51.060;3.638;2023-07-31T08:50:24;100938.84;;;18.50;89.21
78613;BME280;67933;51.060;3.638;2023-07-31T08:52:51;100925.66;;;18.47;90.56
78613;BME280;67933;51.060;3.638;2023-07-31T08:55:17;100934.09;;;18.33;90.85
78613;BME280;67933;51.060;3.638;2023-07-31T08:57:48;100933.75;;;18.17;93.82
78613;BME280;67933;51.060;3.638;2023-07-31T09:00:15;100927.50;;;18.06;95.89
78613;BME280;67933;51.060;3.638;2023-07-31T09:02:45;100935.84;;;18.03;97.07
78613;BME280;67933;51.060;3.638;2023-07-31T09:05:11;100930.66;;;17.91;96.53
78613;BME280;67933;51.060;3.638;2023-07-31T09:07:37;100922.28;;;17.84;97.71
78613;BME280;67933;51.060;3.638;2023-07-31T09:10:04;100929.91;;;17.79;99.02
78613;BME280;67933;51.060;3.638;2023-07-31T09:12:31;100926.81;;;17.84;99.52
78613;BME280;67933;51.060;3.638;2023-07-31T09:14:57;100912.91;;;17.99;98.08
78613;BME280;67933;51.060;3.638;2023-07-31T09:17:33;100908.50;;;17.98;95.60
78613;BME280;67933;51.060;3.638;2023-07-31T09:20:16;100911.31;;;17.97;96.87
78613;BME280;67933;51.060;3.638;2023-07-31T09:22:42;100922.34;;;17.94;96.98
78613;BME280;67933;51.060;3.638;2023-07-31T09:25:28;100925.34;;;18.00;96.20
78613;BME280;67933;51.060;3.638;2023-07-31T09:28:08;100926.94;;;18.03;97.56
78613;BME280;67933;51.060;3.638;2023-07-31T09:31:00;100918.63;;;18.16;96.83
78613;BME280;67933;51.060;3.638;2023-07-31T09:33:25;100913.69;;;18.21;95.68
78613;BME280;67933;51.060;3.638;2023-07-31T09:35:51;100907.47;;;18.20;94.88
78613;BME280;67933;51.060;3.638;2023-07-31T09:38:16;100907.34;;;18.22;94.82
78613;BME280;67933;51.060;3.638;2023-07-31T09:40:47;100900.19;;;18.32;94.67
78613;BME280;67933;51.060;3.638;2023-07-31T09:43:17;100901.06;;;18.42;93.61
78613;BME280;67933;51.060;3.638;2023-07-31T09:45:44;100896.84;;;18.49;93.85
78613;BME280;67933;51.060;3.638;2023-07-31T09:48:19;100898.53;;;18.50;93.29
78613;BME280;67933;51.060;3.638;2023-07-31T09:50:47;100889.97;;;18.75;92.05
78613;BME280;67933;51.060;3.638;2023-07-31T09:53:13;100907.13;;;18.94;91.41
78613;BME280;67933;51.060;3.638;2023-07-31T09:55:40;100901.00;;;19.20;89.70
78613;BME280;67933;51.060;3.638;2023-07-31T09:58:08;100898.59;;;19.37;88.91
78613;BME280;67933;51.060;3.638;2023-07-31T10:00:34;100884.72;;;19.41;87.82
78613;BME280;67933;51.060;3.638;2023-07-31T10:03:02;100892.66;;;19.52;87.79
78613;BME280;67933;51.060;3.638;2023-07-31T10:05:33;100886.97;;;19.46;87.48
78613;BME280;67933;51.060;3.638;2023-07-31T10:08:00;100890.25;;;19.30;88.51
78613;BME280;67933;51.060;3.638;2023-07-31T10:10:26;100882.34;;;19.19;89.33
78613;BME280;67933;51.060;3.638;2023-07-31T10:12:53;100891.97;;;19.12;89.32
78613;BME280;67933;51.060;3.638;2023-07-31T10:15:19;100890.16;;;19.12;89.95
78613;BME280;67933;51.060;3.638;2023-07-31T10:17:47;100882.78;;;18.95;92.06
78613;BME280;67933;51.060;3.638;2023-07-31T10:20:14;100886.44;;;18.84;93.35
78613;BME280;67933;51.060;3.638;2023-07-31T10:22:42;100889.84;;;18.87;94.00
78613;BME280;67933;51.060;3.638;2023-07-31T10:25:08;100879.25;;;18.95;93.30
78613;BME280;67933;51.060;3.638;2023-07-31T10:27:35;100885.75;;;19.02;92.02
78613;BME280;67933;51.060;3.638;2023-07-31T10:30:03;100895.66;;;19.11;91.40
78613;BME280;67933;51.060;3.638;2023-07-31T10:32:30;100881.34;;;19.01;92.32
78613;BME280;67933;51.060;3.638;2023-07-31T10:34:57;100890.69;;;19.06;93.04
78613;BME280;67933;51.060;3.638;2023-07-31T10:37:26;100885.31;;;19.06;91.03
78613;BME280;67933;51.060;3.638;2023-07-31T10:42:30;100863.16;;;19.60;89.95
78613;BME280;67933;51.060;3.638;2023-07-31T10:45:01;100865.34;;;19.94;88.67
78613;BME280;67933;51.060;3.638;2023-07-31T10:47:26;100867.03;;;19.95;86.91
78613;BME280;67933;51.060;3.638;2023-07-31T10:49:52;100861.72;;;19.76;87.55
78613;BME280;67933;51.060;3.638;2023-07-31T10:52:21;100865.72;;;19.62;87.87
78613;BME280;67933;51.060;3.638;2023-07-31T10:55:15;100860.31;;;19.72;87.37
78613;BME280;67933;51.060;3.638;2023-07-31T10:57:46;100864.28;;;19.68;87.23
78613;BME280;67933;51.060;3.638;2023-07-31T11:03:05;100856.63;;;19.73;86.77
78613;BME280;67933;51.060;3.638;2023-07-31T11:05:59;100847.00;;;19.70;86.05
78613;BME280;67933;51.060;3.638;2023-07-31T11:08:28;100848.03;;;19.96;84.61
78613;BME280;67933;51.060;3.638;2023-07-31T11:13:33;100835.06;;;20.10;83.78
78613;BME280;67933;51.060;3.638;2023-07-31T11:16:00;100820.75;;;20.09;83.54
78613;BME280;67933;51.060;3.638;2023-07-31T11:18:26;100818.00;;;19.91;84.74
78613;BME280;67933;51.060;3.638;2023-07-31T11:20:53;100829.94;;;19.89;84.91
78613;BME280;67933;51.060;3.638;2023-07-31T11:23:19;100833.19;;;19.83;83.92
78613;BME280;67933;51.060;3.638;2023-07-31T11:25:45;100830.19;;;19.95;83.80
78613;BME280;67933;51.060;3.638;2023-07-31T11:28:13;100833.66;;;20.06;83.11
78613;BME280;67933;51.060;3.638;2023-07-31T11:30:40;100822.63;;;19.99;83.61
78613;BME280;67933;51.060;3.638;2023-07-31T11:33:07;100812.09;;;20.06;83.78
78613;BME280;67933;51.060;3.638;2023-07-31T11:35:35;100817.88;;;20.20;83.36
78613;BME280;67933;51.060;3.638;2023-07-31T11:38:02;100808.97;;;20.38;82.14
78613;BME280;67933;51.060;3.638;2023-07-31T11:40:28;100807.34;;;20.45;81.39
78613;BME280;67933;51.060;3.638;2023-07-31T11:42:58;100802.06;;;20.70;81.46
78613;BME280;67933;51.060;3.638;2023-07-31T11:45:27;100799.81;;;20.84;79.57
78613;BME280;67933;51.060;3.638;2023-07-31T11:47:56;100795.53;;;20.73;79.76
78613;BME280;67933;51.060;3.638;2023-07-31T11:50:23;100789.09;;;20.39;80.89
78613;BME280;67933;51.060;3.638;2023-07-31T11:52:54;100788.47;;;20.27;81.52
78613;BME280;67933;51.060;3.638;2023-07-31T11:55:21;100775.06;;;20.17;83.04
78613;BME280;67933;51.060;3.638;2023-07-31T11:57:47;100766.31;;;20.06;82.28
78613;BME280;67933;51.060;3.638;2023-07-31T12:00:14;100770.28;;;20.11;82.36
78613;BME280;67933;51.060;3.638;2023-07-31T12:02:40;100771.75;;;20.23;82.24
78613;BME280;67933;51.060;3.638;2023-07-31T12:05:12;100765.13;;;20.18;82.57
78613;BME280;67933;51.060;3.638;2023-07-31T12:10:32;100767.69;;;19.92;83.51
78613;BME280;67933;51.060;3.638;2023-07-31T12:13:05;100771.97;;;19.85;84.16
78613;BME280;67933;51.060;3.638;2023-07-31T12:15:38;100772.72;;;19.77;84.05
78613;BME280;67933;51.060;3.638;2023-07-31T12:18:12;100776.16;;;19.70;85.14
78613;BME280;67933;51.060;3.638;2023-07-31T12:23:16;100788.50;;;19.06;91.59
78613;BME280;67933;51.060;3.638;2023-07-31T12:25:42;100787.16;;;18.73;94.85
78613;BME280;67933;51.060;3.638;2023-07-31T12:28:07;100798.41;;;18.48;96.74
78613;BME280;67933;51.060;3.638;2023-07-31T12:30:37;100791.03;;;18.31;99.25
78613;BME280;67933;51.060;3.638;2023-07-31T12:33:12;100788.03;;;18.15;100.00
78613;BME280;67933;51.060;3.638;2023-07-31T12:35:40;100787.31;;;18.13;100.00
78613;BME280;67933;51.060;3.638;2023-07-31T12:38:06;100796.06;;;18.05;100.00
78613;BME280;67933;51.060;3.638;2023-07-31T12:40:32;100796.06;;;17.95;100.00
78613;BME280;67933;51.060;3.638;2023-07-31T12:43:00;100795.16;;;17.85;100.00
78613;BME280;67933;51.060;3.638;2023-07-31T12:45:25;100795.72;;;17.79;100.00
78613;BME280;67933;51.060;3.638;2023-07-31T12:47:52;100804.75;;;17.78;100.00
78613;BME280;67933;51.060;3.638;2023-07-31T12:50:17;100790.06;;;17.82;100.00
78613;BME280;67933;51.060;3.638;2023-07-31T12:52:43;100782.47;;;17.87;100.00
78613;BME280;67933;51.060;3.638;2023-07-31T12:55:08;100783.00;;;17.81;100.00
78613;BME280;67933;51.060;3.638;2023-07-31T12:57:34;100779.44;;;17.71;100.00
78613;BME280;67933;51.060;3.638;2023-07-31T12:59:59;100775.63;;;17.74;100.00
78613;BME280;67933;51.060;3.638;2023-07-31T13:02:24;100770.25;;;17.74;100.00
78613;BME280;67933;51.060;3.638;2023-07-31T13:04:50;100764.88;;;17.64;100.00
78613;BME280;67933;51.060;3.638;2023-07-31T13:07:16;100769.81;;;17.68;100.00
78613;BME280;67933;51.060;3.638;2023-07-31T13:09:41;100762.88;;;17.66;100.00